sensor_id;sensor_type;location;lat;lon;timestamp;P1;durP1;ratioP1;P2;durP2;ratioP2
77379;SDS011;66439;50.106;10.996;2023-04-25T00:01:39;9.40;;;6.60;;
77379;SDS011;66439;50.106;10.996;2023-04-25T00:03:42;8.20;;;6.30;;
77379;SDS011;66439;50.106;10.996;2023-04-25T00:05:46;9.70;;;6.10;;
77379;SDS011;66439;50.106;10.996;2023-04-25T00:07:52;9.50;;;6.00;;
77379;SDS011;66439;50.106;10.996;2023-04-25T00:09:56;11.10;;;6.30;;
77379;SDS011;66439;50.106;10.996;2023-04-25T00:12:00;9.80;;;6.30;;
77379;SDS011;66439;50.106;10.996;2023-04-25T00:14:04;10.60;;;6.10;;
77379;SDS011;66439;50.106;10.996;2023-04-25T00:16:07;10.70;;;6.00;;
77379;SDS011;66439;50.106;10.996;2023-04-25T00:18:12;8.70;;;6.20;;
77379;SDS011;66439;50.106;10.996;2023-04-25T00:20:16;11.10;;;7.50;;
77379;SDS011;66439;50.106;10.996;2023-04-25T00:22:19;9.50;;;6.30;;
77379;SDS011;66439;50.106;10.996;2023-04-25T00:24:23;11.90;;;6.10;;
77379;SDS011;66439;50.106;10.996;2023-04-25T00:26:26;6.20;;;4.80;;
77379;SDS011;66439;50.106;10.996;2023-04-25T00:28:31;10.00;;;6.20;;
77379;SDS011;66439;50.106;10.996;2023-04-25T00:30:34;9.40;;;6.10;;
77379;SDS011;66439;50.106;10.996;2023-04-25T00:32:38;9.20;;;5.90;;
77379;SDS011;66439;50.106;10.996;2023-04-25T00:34:41;7.80;;;4.80;;
77379;SDS011;66439;50.106;10.996;2023-04-25T00:36:44;8.70;;;5.20;;
77379;SDS011;66439;50.106;10.996;2023-04-25T00:38:48;10.00;;;7.00;;
77379;SDS011;66439;50.106;10.996;2023-04-25T00:40:52;9.20;;;5.50;;
77379;SDS011;66439;50.106;10.996;2023-04-25T00:42:55;9.00;;;5.30;;
77379;SDS011;66439;50.106;10.996;2023-04-25T00:44:58;9.30;;;5.60;;
77379;SDS011;66439;50.106;10.996;2023-04-25T00:47:01;8.40;;;4.80;;
77379;SDS011;66439;50.106;10.996;2023-04-25T00:49:09;10.00;;;6.70;;
77379;SDS011;66439;50.106;10.996;2023-04-25T00:51:19;8.60;;;6.20;;
77379;SDS011;66439;50.106;10.996;2023-04-25T00:53:23;10.50;;;6.30;;
77379;SDS011;66439;50.106;10.996;2023-04-25T00:55:27;10.90;;;6.80;;
77379;SDS011;66439;50.106;10.996;2023-04-25T00:57:30;11.50;;;6.70;;
77379;SDS011;66439;50.106;10.996;2023-04-25T00:59:35;9.70;;;6.40;;
77379;SDS011;66439;50.106;10.996;2023-04-25T01:01:41;9.10;;;5.80;;
77379;SDS011;66439;50.106;10.996;2023-04-25T01:03:45;9.40;;;6.00;;
77379;SDS011;66439;50.106;10.996;2023-04-25T01:05:49;10.00;;;6.80;;
77379;SDS011;66439;50.106;10.996;2023-04-25T01:07:55;11.80;;;6.50;;
77379;SDS011;66439;50.106;10.996;2023-04-25T01:09:59;17.30;;;8.70;;
77379;SDS011;66439;50.106;10.996;2023-04-25T01:12:03;10.50;;;6.50;;
77379;SDS011;66439;50.106;10.996;2023-04-25T01:14:09;11.00;;;6.10;;
77379;SDS011;66439;50.106;10.996;2023-04-25T01:16:13;8.30;;;5.60;;
77379;SDS011;66439;50.106;10.996;2023-04-25T01:18:18;8.40;;;5.80;;
77379;SDS011;66439;50.106;10.996;2023-04-25T01:20:23;8.50;;;6.00;;
77379;SDS011;66439;50.106;10.996;2023-04-25T01:22:27;10.00;;;5.20;;
77379;SDS011;66439;50.106;10.996;2023-04-25T01:24:32;12.50;;;6.60;;
77379;SDS011;66439;50.106;10.996;2023-04-25T01:26:36;8.70;;;5.80;;
77379;SDS011;66439;50.106;10.996;2023-04-25T01:28:40;9.90;;;6.00;;
77379;SDS011;66439;50.106;10.996;2023-04-25T01:30:44;9.30;;;5.40;;
77379;SDS011;66439;50.106;10.996;2023-04-25T01:32:49;10.40;;;6.80;;
77379;SDS011;66439;50.106;10.996;2023-04-25T01:34:52;8.20;;;5.20;;
77379;SDS011;66439;50.106;10.996;2023-04-25T01:36:55;9.70;;;6.10;;
77379;SDS011;66439;50.106;10.996;2023-04-25T01:38:59;8.20;;;6.10;;
77379;SDS011;66439;50.106;10.996;2023-04-25T01:41:04;12.40;;;6.60;;
77379;SDS011;66439;50.106;10.996;2023-04-25T01:43:07;9.80;;;6.50;;
77379;SDS011;66439;50.106;10.996;2023-04-25T01:47:18;9.50;;;6.60;;
77379;SDS011;66439;50.106;10.996;2023-04-25T01:49:21;9.00;;;5.10;;
77379;SDS011;66439;50.106;10.996;2023-04-25T01:51:24;11.90;;;6.40;;
77379;SDS011;66439;50.106;10.996;2023-04-25T01:53:27;7.20;;;5.70;;
77379;SDS011;66439;50.106;10.996;2023-04-25T01:55:30;9.20;;;4.90;;
77379;SDS011;66439;50.106;10.996;2023-04-25T01:57:39;9.40;;;6.30;;
77379;SDS011;66439;50.106;10.996;2023-04-25T01:59:43;8.80;;;5.50;;
77379;SDS011;66439;50.106;10.996;2023-04-25T02:01:52;8.50;;;5.10;;
77379;SDS011;66439;50.106;10.996;2023-04-25T02:03:58;8.80;;;5.90;;
77379;SDS011;66439;50.106;10.996;2023-04-25T02:06:06;9.30;;;6.10;;
77379;SDS011;66439;50.106;10.996;2023-04-25T02:08:12;9.30;;;5.60;;
77379;SDS011;66439;50.106;10.996;2023-04-25T02:10:16;9.00;;;5.60;;
77379;SDS011;66439;50.106;10.996;2023-04-25T02:12:36;9.30;;;5.60;;
77379;SDS011;66439;50.106;10.996;2023-04-25T02:15:02;9.70;;;6.30;;
77379;SDS011;66439;50.106;10.996;2023-04-25T02:17:18;11.60;;;6.30;;
77379;SDS011;66439;50.106;10.996;2023-04-25T02:19:21;7.80;;;4.90;;
77379;SDS011;66439;50.106;10.996;2023-04-25T02:21:27;11.00;;;5.90;;
77379;SDS011;66439;50.106;10.996;2023-04-25T02:23:32;6.80;;;4.40;;
77379;SDS011;66439;50.106;10.996;2023-04-25T02:25:38;9.40;;;6.40;;
77379;SDS011;66439;50.106;10.996;2023-04-25T02:27:41;8.60;;;5.30;;
77379;SDS011;66439;50.106;10.996;2023-04-25T02:29:45;13.60;;;6.20;;
77379;SDS011;66439;50.106;10.996;2023-04-25T02:31:48;8.20;;;5.40;;
77379;SDS011;66439;50.106;10.996;2023-04-25T02:33:52;9.50;;;5.70;;
77379;SDS011;66439;50.106;10.996;2023-04-25T02:35:58;11.00;;;6.20;;
77379;SDS011;66439;50.106;10.996;2023-04-25T02:38:01;10.30;;;6.50;;
77379;SDS011;66439;50.106;10.996;2023-04-25T02:40:06;9.10;;;6.30;;
77379;SDS011;66439;50.106;10.996;2023-04-25T02:42:16;8.20;;;5.50;;
77379;SDS011;66439;50.106;10.996;2023-04-25T02:44:19;10.80;;;5.90;;
77379;SDS011;66439;50.106;10.996;2023-04-25T02:46:22;9.20;;;6.20;;
77379;SDS011;66439;50.106;10.996;2023-04-25T02:48:41;10.60;;;5.70;;
77379;SDS011;66439;50.106;10.996;2023-04-25T02:50:44;9.00;;;5.20;;
77379;SDS011;66439;50.106;10.996;2023-04-25T02:52:47;7.70;;;5.50;;
77379;SDS011;66439;50.106;10.996;2023-04-25T02:54:53;9.30;;;5.90;;
77379;SDS011;66439;50.106;10.996;2023-04-25T02:56:56;7.60;;;5.00;;
77379;SDS011;66439;50.106;10.996;2023-04-25T02:59:02;13.30;;;5.90;;
77379;SDS011;66439;50.106;10.996;2023-04-25T03:01:06;9.00;;;6.00;;
77379;SDS011;66439;50.106;10.996;2023-04-25T03:03:10;8.90;;;5.60;;
77379;SDS011;66439;50.106;10.996;2023-04-25T03:05:13;8.60;;;5.80;;
77379;SDS011;66439;50.106;10.996;2023-04-25T03:07:17;8.80;;;5.00;;
77379;SDS011;66439;50.106;10.996;2023-04-25T03:09:20;9.50;;;6.60;;
77379;SDS011;66439;50.106;10.996;2023-04-25T03:11:30;8.70;;;6.10;;
77379;SDS011;66439;50.106;10.996;2023-04-25T03:13:34;11.30;;;6.50;;
77379;SDS011;66439;50.106;10.996;2023-04-25T03:15:37;15.10;;;9.10;;
77379;SDS011;66439;50.106;10.996;2023-04-25T03:17:40;12.80;;;7.20;;
77379;SDS011;66439;50.106;10.996;2023-04-25T03:19:46;12.00;;;7.90;;
77379;SDS011;66439;50.106;10.996;2023-04-25T03:21:51;13.30;;;7.10;;
77379;SDS011;66439;50.106;10.996;2023-04-25T03:23:58;9.90;;;6.70;;
77379;SDS011;66439;50.106;10.996;2023-04-25T03:26:05;10.20;;;6.50;;
77379;SDS011;66439;50.106;10.996;2023-04-25T03:28:08;13.90;;;7.60;;
77379;SDS011;66439;50.106;10.996;2023-04-25T03:30:11;9.70;;;6.60;;
77379;SDS011;66439;50.106;10.996;2023-04-25T03:32:15;10.50;;;7.00;;
77379;SDS011;66439;50.106;10.996;2023-04-25T03:34:18;10.80;;;6.70;;
77379;SDS011;66439;50.106;10.996;2023-04-25T03:36:23;10.90;;;6.60;;
77379;SDS011;66439;50.106;10.996;2023-04-25T03:38:27;12.30;;;7.60;;
77379;SDS011;66439;50.106;10.996;2023-04-25T03:40:30;12.60;;;7.30;;
77379;SDS011;66439;50.106;10.996;2023-04-25T03:42:53;11.00;;;6.40;;
77379;SDS011;66439;50.106;10.996;2023-04-25T03:44:56;12.30;;;7.10;;
77379;SDS011;66439;50.106;10.996;2023-04-25T03:47:01;11.20;;;6.40;;
77379;SDS011;66439;50.106;10.996;2023-04-25T03:49:06;13.50;;;7.10;;
77379;SDS011;66439;50.106;10.996;2023-04-25T03:51:27;13.60;;;7.00;;
77379;SDS011;66439;50.106;10.996;2023-04-25T03:53:31;11.50;;;7.20;;
77379;SDS011;66439;50.106;10.996;2023-04-25T03:55:56;10.40;;;6.80;;
77379;SDS011;66439;50.106;10.996;2023-04-25T03:57:59;10.10;;;6.90;;
77379;SDS011;66439;50.106;10.996;2023-04-25T04:00:03;10.30;;;6.50;;
77379;SDS011;66439;50.106;10.996;2023-04-25T04:02:14;9.20;;;5.70;;
77379;SDS011;66439;50.106;10.996;2023-04-25T04:04:19;10.60;;;5.30;;
77379;SDS011;66439;50.106;10.996;2023-04-25T04:06:26;7.90;;;4.30;;
77379;SDS011;66439;50.106;10.996;2023-04-25T04:08:36;6.50;;;4.00;;
77379;SDS011;66439;50.106;10.996;2023-04-25T04:10:39;7.70;;;5.20;;
77379;SDS011;66439;50.106;10.996;2023-04-25T04:12:42;8.60;;;5.10;;
77379;SDS011;66439;50.106;10.996;2023-04-25T04:14:46;6.90;;;4.50;;
77379;SDS011;66439;50.106;10.996;2023-04-25T04:16:51;8.20;;;5.30;;
77379;SDS011;66439;50.106;10.996;2023-04-25T04:18:55;8.50;;;4.60;;
77379;SDS011;66439;50.106;10.996;2023-04-25T04:20:59;10.50;;;5.40;;
77379;SDS011;66439;50.106;10.996;2023-04-25T04:23:05;9.20;;;4.60;;
77379;SDS011;66439;50.106;10.996;2023-04-25T04:25:09;11.40;;;5.30;;
77379;SDS011;66439;50.106;10.996;2023-04-25T04:27:32;11.70;;;5.10;;
77379;SDS011;66439;50.106;10.996;2023-04-25T04:29:55;8.00;;;5.10;;
77379;SDS011;66439;50.106;10.996;2023-04-25T04:32:07;9.00;;;6.00;;
77379;SDS011;66439;50.106;10.996;2023-04-25T04:34:12;8.80;;;4.80;;
77379;SDS011;66439;50.106;10.996;2023-04-25T04:36:16;7.80;;;4.80;;
77379;SDS011;66439;50.106;10.996;2023-04-25T04:38:23;8.70;;;5.20;;
77379;SDS011;66439;50.106;10.996;2023-04-25T04:40:33;8.80;;;4.70;;
77379;SDS011;66439;50.106;10.996;2023-04-25T04:42:53;6.60;;;4.50;;
77379;SDS011;66439;50.106;10.996;2023-04-25T04:45:15;8.10;;;5.20;;
77379;SDS011;66439;50.106;10.996;2023-04-25T04:47:41;8.60;;;5.20;;
77379;SDS011;66439;50.106;10.996;2023-04-25T04:49:59;8.70;;;5.20;;
77379;SDS011;66439;50.106;10.996;2023-04-25T04:52:13;8.40;;;5.30;;
77379;SDS011;66439;50.106;10.996;2023-04-25T04:54:48;8.40;;;5.50;;
77379;SDS011;66439;50.106;10.996;2023-04-25T04:57:14;8.00;;;5.70;;
77379;SDS011;66439;50.106;10.996;2023-04-25T04:59:31;8.70;;;5.40;;
77379;SDS011;66439;50.106;10.996;2023-04-25T05:02:16;12.90;;;5.90;;
77379;SDS011;66439;50.106;10.996;2023-04-25T05:04:26;9.40;;;5.60;;
77379;SDS011;66439;50.106;10.996;2023-04-25T05:06:49;16.20;;;7.40;;
77379;SDS011;66439;50.106;10.996;2023-04-25T05:09:11;13.80;;;6.70;;
77379;SDS011;66439;50.106;10.996;2023-04-25T05:11:40;17.00;;;7.30;;
77379;SDS011;66439;50.106;10.996;2023-04-25T05:13:56;14.80;;;7.20;;
77379;SDS011;66439;50.106;10.996;2023-04-25T05:16:23;9.60;;;5.60;;
77379;SDS011;66439;50.106;10.996;2023-04-25T05:18:46;9.20;;;5.20;;
77379;SDS011;66439;50.106;10.996;2023-04-25T05:21:15;8.80;;;5.30;;
77379;SDS011;66439;50.106;10.996;2023-04-25T05:23:34;6.10;;;4.30;;
77379;SDS011;66439;50.106;10.996;2023-04-25T05:25:45;10.60;;;5.80;;
77379;SDS011;66439;50.106;10.996;2023-04-25T05:28:01;11.30;;;5.40;;
77379;SDS011;66439;50.106;10.996;2023-04-25T05:30:25;8.30;;;5.10;;
77379;SDS011;66439;50.106;10.996;2023-04-25T05:32:51;8.90;;;5.60;;
77379;SDS011;66439;50.106;10.996;2023-04-25T05:34:55;11.30;;;5.70;;
77379;SDS011;66439;50.106;10.996;2023-04-25T05:37:01;13.50;;;6.70;;
77379;SDS011;66439;50.106;10.996;2023-04-25T05:39:05;9.00;;;6.20;;
77379;SDS011;66439;50.106;10.996;2023-04-25T05:41:27;10.80;;;6.90;;
77379;SDS011;66439;50.106;10.996;2023-04-25T05:43:36;12.00;;;6.90;;
77379;SDS011;66439;50.106;10.996;2023-04-25T05:45:56;11.70;;;6.80;;
77379;SDS011;66439;50.106;10.996;2023-04-25T05:48:05;12.80;;;6.90;;
77379;SDS011;66439;50.106;10.996;2023-04-25T05:50:31;9.80;;;6.30;;
77379;SDS011;66439;50.106;10.996;2023-04-25T05:52:38;11.00;;;6.50;;
77379;SDS011;66439;50.106;10.996;2023-04-25T05:54:48;11.00;;;6.70;;
77379;SDS011;66439;50.106;10.996;2023-04-25T05:56:51;13.50;;;6.60;;
77379;SDS011;66439;50.106;10.996;2023-04-25T05:58:53;11.00;;;6.90;;
77379;SDS011;66439;50.106;10.996;2023-04-25T06:00:57;11.60;;;6.80;;
77379;SDS011;66439;50.106;10.996;2023-04-25T06:03:02;10.20;;;6.30;;
77379;SDS011;66439;50.106;10.996;2023-04-25T06:05:06;10.80;;;6.00;;
77379;SDS011;66439;50.106;10.996;2023-04-25T06:07:10;9.90;;;7.30;;
77379;SDS011;66439;50.106;10.996;2023-04-25T06:09:16;8.30;;;5.80;;
77379;SDS011;66439;50.106;10.996;2023-04-25T06:11:19;11.50;;;7.70;;
77379;SDS011;66439;50.106;10.996;2023-04-25T06:13:22;10.80;;;7.30;;
77379;SDS011;66439;50.106;10.996;2023-04-25T06:15:25;14.10;;;6.70;;
77379;SDS011;66439;50.106;10.996;2023-04-25T06:17:35;12.10;;;6.90;;
77379;SDS011;66439;50.106;10.996;2023-04-25T06:19:42;10.20;;;5.50;;
77379;SDS011;66439;50.106;10.996;2023-04-25T06:21:48;12.40;;;6.90;;
77379;SDS011;66439;50.106;10.996;2023-04-25T06:23:51;14.60;;;7.50;;
77379;SDS011;66439;50.106;10.996;2023-04-25T06:25:57;11.10;;;7.40;;
77379;SDS011;66439;50.106;10.996;2023-04-25T06:28:01;13.10;;;7.00;;
77379;SDS011;66439;50.106;10.996;2023-04-25T06:30:07;10.90;;;7.00;;
77379;SDS011;66439;50.106;10.996;2023-04-25T06:32:11;14.10;;;7.70;;
77379;SDS011;66439;50.106;10.996;2023-04-25T06:34:15;32.10;;;10.80;;
77379;SDS011;66439;50.106;10.996;2023-04-25T06:36:18;19.00;;;9.20;;
77379;SDS011;66439;50.106;10.996;2023-04-25T06:38:22;24.30;;;9.30;;
77379;SDS011;66439;50.106;10.996;2023-04-25T06:40:26;12.60;;;7.10;;
77379;SDS011;66439;50.106;10.996;2023-04-25T06:42:30;12.60;;;6.20;;
77379;SDS011;66439;50.106;10.996;2023-04-25T06:44:55;11.00;;;6.20;;
77379;SDS011;66439;50.106;10.996;2023-04-25T06:46:58;12.20;;;7.30;;
77379;SDS011;66439;50.106;10.996;2023-04-25T06:49:01;12.00;;;5.70;;
77379;SDS011;66439;50.106;10.996;2023-04-25T06:51:06;11.20;;;6.10;;
77379;SDS011;66439;50.106;10.996;2023-04-25T06:53:10;10.40;;;6.70;;
77379;SDS011;66439;50.106;10.996;2023-04-25T06:55:14;14.60;;;6.20;;
77379;SDS011;66439;50.106;10.996;2023-04-25T06:57:33;9.30;;;5.00;;
77379;SDS011;66439;50.106;10.996;2023-04-25T07:00:01;7.00;;;4.30;;
77379;SDS011;66439;50.106;10.996;2023-04-25T07:02:07;10.50;;;5.10;;
77379;SDS011;66439;50.106;10.996;2023-04-25T07:04:11;8.90;;;4.80;;
77379;SDS011;66439;50.106;10.996;2023-04-25T07:06:24;11.90;;;5.50;;
77379;SDS011;66439;50.106;10.996;2023-04-25T07:08:29;10.40;;;5.00;;
77379;SDS011;66439;50.106;10.996;2023-04-25T07:10:32;10.70;;;5.20;;
77379;SDS011;66439;50.106;10.996;2023-04-25T07:12:39;9.90;;;5.90;;
77379;SDS011;66439;50.106;10.996;2023-04-25T07:14:43;12.30;;;6.70;;
77379;SDS011;66439;50.106;10.996;2023-04-25T07:16:47;10.00;;;4.80;;
77379;SDS011;66439;50.106;10.996;2023-04-25T07:18:50;14.80;;;6.40;;
77379;SDS011;66439;50.106;10.996;2023-04-25T07:20:54;13.20;;;5.70;;
77379;SDS011;66439;50.106;10.996;2023-04-25T07:23:00;10.10;;;5.80;;
77379;SDS011;66439;50.106;10.996;2023-04-25T07:25:07;14.70;;;6.00;;
77379;SDS011;66439;50.106;10.996;2023-04-25T07:27:13;11.80;;;5.80;;
77379;SDS011;66439;50.106;10.996;2023-04-25T07:29:41;10.80;;;5.20;;
77379;SDS011;66439;50.106;10.996;2023-04-25T07:31:45;11.40;;;5.90;;
77379;SDS011;66439;50.106;10.996;2023-04-25T07:33:48;11.40;;;6.30;;
77379;SDS011;66439;50.106;10.996;2023-04-25T07:35:52;12.00;;;5.30;;
77379;SDS011;66439;50.106;10.996;2023-04-25T07:37:56;12.50;;;6.20;;
77379;SDS011;66439;50.106;10.996;2023-04-25T07:39:59;12.40;;;6.10;;
77379;SDS011;66439;50.106;10.996;2023-04-25T07:42:04;11.20;;;5.60;;
77379;SDS011;66439;50.106;10.996;2023-04-25T07:44:09;9.70;;;5.10;;
77379;SDS011;66439;50.106;10.996;2023-04-25T07:46:12;9.50;;;5.30;;
77379;SDS011;66439;50.106;10.996;2023-04-25T07:48:18;12.60;;;4.80;;
77379;SDS011;66439;50.106;10.996;2023-04-25T07:50:22;10.00;;;4.60;;
77379;SDS011;66439;50.106;10.996;2023-04-25T07:52:26;10.70;;;5.30;;
77379;SDS011;66439;50.106;10.996;2023-04-25T07:54:36;12.40;;;5.20;;
77379;SDS011;66439;50.106;10.996;2023-04-25T07:56:46;14.10;;;5.50;;
77379;SDS011;66439;50.106;10.996;2023-04-25T07:58:59;13.10;;;6.70;;
77379;SDS011;66439;50.106;10.996;2023-04-25T08:01:03;15.10;;;6.40;;
77379;SDS011;66439;50.106;10.996;2023-04-25T08:03:08;16.60;;;6.30;;
77379;SDS011;66439;50.106;10.996;2023-04-25T08:05:12;7.60;;;3.70;;
77379;SDS011;66439;50.106;10.996;2023-04-25T08:07:19;9.00;;;3.70;;
77379;SDS011;66439;50.106;10.996;2023-04-25T08:09:26;7.90;;;3.70;;
77379;SDS011;66439;50.106;10.996;2023-04-25T08:11:29;15.50;;;5.30;;
77379;SDS011;66439;50.106;10.996;2023-04-25T08:13:32;12.50;;;5.60;;
77379;SDS011;66439;50.106;10.996;2023-04-25T08:15:35;13.90;;;6.50;;
77379;SDS011;66439;50.106;10.996;2023-04-25T08:17:38;10.70;;;4.40;;
77379;SDS011;66439;50.106;10.996;2023-04-25T08:19:41;9.00;;;4.40;;
77379;SDS011;66439;50.106;10.996;2023-04-25T08:21:51;9.70;;;5.10;;
77379;SDS011;66439;50.106;10.996;2023-04-25T08:23:59;11.30;;;5.70;;
77379;SDS011;66439;50.106;10.996;2023-04-25T08:26:05;11.80;;;5.00;;
77379;SDS011;66439;50.106;10.996;2023-04-25T08:28:09;12.00;;;6.30;;
77379;SDS011;66439;50.106;10.996;2023-04-25T08:30:13;10.80;;;5.70;;
77379;SDS011;66439;50.106;10.996;2023-04-25T08:32:18;8.00;;;4.50;;
77379;SDS011;66439;50.106;10.996;2023-04-25T08:36:39;4.20;;;2.60;;
77379;SDS011;66439;50.106;10.996;2023-04-25T08:38:58;5.80;;;4.30;;
77379;SDS011;66439;50.106;10.996;2023-04-25T08:41:01;5.60;;;3.40;;
77379;SDS011;66439;50.106;10.996;2023-04-25T08:43:07;8.80;;;4.30;;
77379;SDS011;66439;50.106;10.996;2023-04-25T08:45:15;9.00;;;3.90;;
77379;SDS011;66439;50.106;10.996;2023-04-25T08:47:22;8.50;;;4.60;;
77379;SDS011;66439;50.106;10.996;2023-04-25T08:49:33;9.50;;;4.70;;
77379;SDS011;66439;50.106;10.996;2023-04-25T08:51:44;8.40;;;4.30;;
77379;SDS011;66439;50.106;10.996;2023-04-25T08:53:55;7.90;;;4.40;;
77379;SDS011;66439;50.106;10.996;2023-04-25T08:56:12;6.90;;;4.10;;
77379;SDS011;66439;50.106;10.996;2023-04-25T08:58:21;9.80;;;4.70;;
77379;SDS011;66439;50.106;10.996;2023-04-25T09:00:26;9.70;;;4.50;;
77379;SDS011;66439;50.106;10.996;2023-04-25T09:02:31;7.60;;;3.80;;
77379;SDS011;66439;50.106;10.996;2023-04-25T09:04:37;4.80;;;2.90;;
77379;SDS011;66439;50.106;10.996;2023-04-25T09:06:40;4.80;;;3.20;;
77379;SDS011;66439;50.106;10.996;2023-04-25T09:08:43;8.10;;;3.60;;
77379;SDS011;66439;50.106;10.996;2023-04-25T09:10:46;8.00;;;3.70;;
77379;SDS011;66439;50.106;10.996;2023-04-25T09:13:08;8.90;;;3.60;;
77379;SDS011;66439;50.106;10.996;2023-04-25T09:15:47;9.80;;;3.30;;
77379;SDS011;66439;50.106;10.996;2023-04-25T09:18:30;8.20;;;3.70;;
77379;SDS011;66439;50.106;10.996;2023-04-25T09:20:42;8.00;;;4.00;;
77379;SDS011;66439;50.106;10.996;2023-04-25T09:23:04;4.60;;;2.50;;
77379;SDS011;66439;50.106;10.996;2023-04-25T09:25:12;9.20;;;3.40;;
77379;SDS011;66439;50.106;10.996;2023-04-25T09:27:20;6.00;;;2.80;;
77379;SDS011;66439;50.106;10.996;2023-04-25T09:29:36;5.00;;;3.40;;
77379;SDS011;66439;50.106;10.996;2023-04-25T09:31:41;4.90;;;2.90;;
77379;SDS011;66439;50.106;10.996;2023-04-25T09:33:45;3.40;;;2.00;;
77379;SDS011;66439;50.106;10.996;2023-04-25T09:35:50;5.20;;;3.10;;
77379;SDS011;66439;50.106;10.996;2023-04-25T09:38:15;4.60;;;2.90;;
77379;SDS011;66439;50.106;10.996;2023-04-25T09:40:30;7.60;;;3.40;;
77379;SDS011;66439;50.106;10.996;2023-04-25T09:42:41;3.80;;;2.50;;
77379;SDS011;66439;50.106;10.996;2023-04-25T09:44:47;8.70;;;3.50;;
77379;SDS011;66439;50.106;10.996;2023-04-25T09:46:50;5.90;;;3.10;;
77379;SDS011;66439;50.106;10.996;2023-04-25T09:48:58;7.60;;;3.60;;
77379;SDS011;66439;50.106;10.996;2023-04-25T09:51:13;8.10;;;4.50;;
77379;SDS011;66439;50.106;10.996;2023-04-25T09:53:18;6.70;;;3.70;;
77379;SDS011;66439;50.106;10.996;2023-04-25T09:55:39;6.60;;;3.20;;
77379;SDS011;66439;50.106;10.996;2023-04-25T09:57:46;5.80;;;2.50;;
77379;SDS011;66439;50.106;10.996;2023-04-25T09:59:51;6.20;;;3.50;;
77379;SDS011;66439;50.106;10.996;2023-04-25T10:02:00;5.00;;;2.30;;
77379;SDS011;66439;50.106;10.996;2023-04-25T10:04:24;5.00;;;2.60;;
77379;SDS011;66439;50.106;10.996;2023-04-25T10:06:37;5.50;;;3.10;;
77379;SDS011;66439;50.106;10.996;2023-04-25T10:08:40;6.60;;;3.40;;
77379;SDS011;66439;50.106;10.996;2023-04-25T10:10:44;4.10;;;2.90;;
77379;SDS011;66439;50.106;10.996;2023-04-25T10:12:47;5.60;;;2.80;;
77379;SDS011;66439;50.106;10.996;2023-04-25T10:14:52;4.60;;;2.40;;
77379;SDS011;66439;50.106;10.996;2023-04-25T10:16:59;6.10;;;3.20;;
77379;SDS011;66439;50.106;10.996;2023-04-25T10:19:04;7.00;;;2.60;;
77379;SDS011;66439;50.106;10.996;2023-04-25T10:21:07;8.00;;;2.80;;
77379;SDS011;66439;50.106;10.996;2023-04-25T10:23:11;4.80;;;3.00;;
77379;SDS011;66439;50.106;10.996;2023-04-25T10:25:16;4.80;;;2.80;;
77379;SDS011;66439;50.106;10.996;2023-04-25T10:27:19;4.90;;;2.80;;
77379;SDS011;66439;50.106;10.996;2023-04-25T10:29:23;5.50;;;2.80;;
77379;SDS011;66439;50.106;10.996;2023-04-25T10:31:29;4.30;;;2.30;;
77379;SDS011;66439;50.106;10.996;2023-04-25T10:33:37;7.40;;;3.40;;
77379;SDS011;66439;50.106;10.996;2023-04-25T10:35:41;8.40;;;3.70;;
77379;SDS011;66439;50.106;10.996;2023-04-25T10:37:59;4.80;;;3.70;;
77379;SDS011;66439;50.106;10.996;2023-04-25T10:40:08;5.40;;;2.90;;
77379;SDS011;66439;50.106;10.996;2023-04-25T10:42:15;4.80;;;2.80;;
77379;SDS011;66439;50.106;10.996;2023-04-25T10:44:19;5.20;;;2.50;;
77379;SDS011;66439;50.106;10.996;2023-04-25T10:46:23;6.30;;;3.30;;
77379;SDS011;66439;50.106;10.996;2023-04-25T10:48:30;6.00;;;2.70;;
77379;SDS011;66439;50.106;10.996;2023-04-25T10:50:38;5.60;;;2.70;;
77379;SDS011;66439;50.106;10.996;2023-04-25T10:52:44;5.20;;;3.20;;
77379;SDS011;66439;50.106;10.996;2023-04-25T10:54:50;4.70;;;2.90;;
77379;SDS011;66439;50.106;10.996;2023-04-25T10:56:54;3.70;;;2.70;;
77379;SDS011;66439;50.106;10.996;2023-04-25T11:01:15;3.70;;;2.70;;
77379;SDS011;66439;50.106;10.996;2023-04-25T11:03:24;5.40;;;3.00;;
77379;SDS011;66439;50.106;10.996;2023-04-25T11:05:35;7.90;;;2.60;;
77379;SDS011;66439;50.106;10.996;2023-04-25T11:07:58;5.30;;;2.40;;
77379;SDS011;66439;50.106;10.996;2023-04-25T11:10:10;5.60;;;2.60;;
77379;SDS011;66439;50.106;10.996;2023-04-25T11:12:13;5.70;;;3.10;;
77379;SDS011;66439;50.106;10.996;2023-04-25T11:14:17;7.60;;;3.20;;
77379;SDS011;66439;50.106;10.996;2023-04-25T11:16:23;6.00;;;3.30;;
77379;SDS011;66439;50.106;10.996;2023-04-25T11:18:30;4.70;;;3.00;;
77379;SDS011;66439;50.106;10.996;2023-04-25T11:20:32;5.70;;;2.90;;
77379;SDS011;66439;50.106;10.996;2023-04-25T11:22:37;6.30;;;3.20;;
77379;SDS011;66439;50.106;10.996;2023-04-25T11:24:43;7.20;;;3.30;;
77379;SDS011;66439;50.106;10.996;2023-04-25T11:26:46;7.30;;;2.90;;
77379;SDS011;66439;50.106;10.996;2023-04-25T11:28:56;8.00;;;4.20;;
77379;SDS011;66439;50.106;10.996;2023-04-25T11:31:02;4.20;;;2.40;;
77379;SDS011;66439;50.106;10.996;2023-04-25T11:33:06;5.00;;;3.30;;
77379;SDS011;66439;50.106;10.996;2023-04-25T11:35:09;5.00;;;2.80;;
77379;SDS011;66439;50.106;10.996;2023-04-25T11:37:13;5.90;;;3.90;;
77379;SDS011;66439;50.106;10.996;2023-04-25T11:39:18;5.90;;;3.10;;
77379;SDS011;66439;50.106;10.996;2023-04-25T11:41:21;5.90;;;3.40;;
77379;SDS011;66439;50.106;10.996;2023-04-25T11:43:25;6.30;;;3.70;;
77379;SDS011;66439;50.106;10.996;2023-04-25T11:45:28;5.60;;;3.60;;
77379;SDS011;66439;50.106;10.996;2023-04-25T11:47:32;6.60;;;3.50;;
77379;SDS011;66439;50.106;10.996;2023-04-25T11:49:36;5.70;;;3.20;;
77379;SDS011;66439;50.106;10.996;2023-04-25T11:51:43;6.40;;;3.10;;
77379;SDS011;66439;50.106;10.996;2023-04-25T11:53:47;9.50;;;4.00;;
77379;SDS011;66439;50.106;10.996;2023-04-25T11:55:49;5.60;;;3.30;;
77379;SDS011;66439;50.106;10.996;2023-04-25T11:57:53;9.30;;;3.80;;
77379;SDS011;66439;50.106;10.996;2023-04-25T12:00:04;5.00;;;3.10;;
77379;SDS011;66439;50.106;10.996;2023-04-25T12:02:23;6.10;;;3.00;;
77379;SDS011;66439;50.106;10.996;2023-04-25T12:04:29;7.60;;;3.70;;
77379;SDS011;66439;50.106;10.996;2023-04-25T12:06:33;5.00;;;2.70;;
77379;SDS011;66439;50.106;10.996;2023-04-25T12:11:21;6.40;;;3.20;;
77379;SDS011;66439;50.106;10.996;2023-04-25T12:13:26;4.90;;;3.30;;
77379;SDS011;66439;50.106;10.996;2023-04-25T12:15:30;8.10;;;4.00;;
77379;SDS011;66439;50.106;10.996;2023-04-25T12:17:38;6.10;;;3.00;;
77379;SDS011;66439;50.106;10.996;2023-04-25T12:19:42;6.60;;;3.40;;
77379;SDS011;66439;50.106;10.996;2023-04-25T12:21:47;6.30;;;3.60;;
77379;SDS011;66439;50.106;10.996;2023-04-25T12:24:13;7.30;;;3.30;;
77379;SDS011;66439;50.106;10.996;2023-04-25T12:26:20;5.50;;;3.50;;
77379;SDS011;66439;50.106;10.996;2023-04-25T12:28:24;8.30;;;3.40;;
77379;SDS011;66439;50.106;10.996;2023-04-25T12:30:50;6.20;;;3.80;;
77379;SDS011;66439;50.106;10.996;2023-04-25T12:32:59;7.10;;;3.80;;
77379;SDS011;66439;50.106;10.996;2023-04-25T12:35:02;6.30;;;3.50;;
77379;SDS011;66439;50.106;10.996;2023-04-25T12:37:05;4.70;;;3.10;;
77379;SDS011;66439;50.106;10.996;2023-04-25T12:39:15;7.20;;;3.20;;
77379;SDS011;66439;50.106;10.996;2023-04-25T12:43:21;7.60;;;3.60;;
77379;SDS011;66439;50.106;10.996;2023-04-25T12:45:29;6.10;;;3.30;;
77379;SDS011;66439;50.106;10.996;2023-04-25T12:47:32;5.80;;;2.70;;